sensor_id;sensor_type;location;lat;lon;timestamp;P1;durP1;ratioP1;P2;durP2;ratioP2
44214;SDS011;29884;47.450;19.124;2023-01-10T00:01:24;11.40;;;8.43;;
44214;SDS011;29884;47.450;19.124;2023-01-10T00:03:50;10.02;;;7.82;;
44214;SDS011;29884;47.450;19.124;2023-01-10T00:06:16;11.60;;;8.00;;
44214;SDS011;29884;47.450;19.124;2023-01-10T00:08:42;10.50;;;7.80;;
44214;SDS011;29884;47.450;19.124;2023-01-10T00:11:07;10.50;;;7.43;;
44214;SDS011;29884;47.450;19.124;2023-01-10T00:13:55;12.73;;;7.88;;
44214;SDS011;29884;47.450;19.124;2023-01-10T00:16:21;10.68;;;7.57;;
44214;SDS011;29884;47.450;19.124;2023-01-10T00:18:47;9.75;;;7.35;;
44214;SDS011;29884;47.450;19.124;2023-01-10T00:21:13;10.57;;;8.45;;
44214;SDS011;29884;47.450;19.124;2023-01-10T00:23:39;10.50;;;7.97;;
44214;SDS011;29884;47.450;19.124;2023-01-10T00:26:05;11.30;;;7.75;;
44214;SDS011;29884;47.450;19.124;2023-01-10T00:28:31;10.65;;;7.55;;
44214;SDS011;29884;47.450;19.124;2023-01-10T00:30:58;11.68;;;8.85;;
44214;SDS011;29884;47.450;19.124;2023-01-10T00:33:34;10.63;;;7.70;;
44214;SDS011;29884;47.450;19.124;2023-01-10T00:36:01;11.07;;;8.00;;
44214;SDS011;29884;47.450;19.124;2023-01-10T00:38:31;11.07;;;8.00;;
44214;SDS011;29884;47.450;19.124;2023-01-10T00:40:58;12.27;;;8.30;;
44214;SDS011;29884;47.450;19.124;2023-01-10T00:43:24;11.52;;;8.45;;
44214;SDS011;29884;47.450;19.124;2023-01-10T00:46:08;10.45;;;8.32;;
44214;SDS011;29884;47.450;19.124;2023-01-10T00:48:34;12.07;;;8.95;;
44214;SDS011;29884;47.450;19.124;2023-01-10T00:51:01;12.82;;;8.48;;
44214;SDS011;29884;47.450;19.124;2023-01-10T00:53:27;12.57;;;8.73;;
44214;SDS011;29884;47.450;19.124;2023-01-10T00:55:53;14.05;;;9.30;;
44214;SDS011;29884;47.450;19.124;2023-01-10T00:58:19;14.48;;;9.82;;
44214;SDS011;29884;47.450;19.124;2023-01-10T01:00:45;12.05;;;8.75;;
44214;SDS011;29884;47.450;19.124;2023-01-10T01:03:13;13.25;;;9.25;;
44214;SDS011;29884;47.450;19.124;2023-01-10T01:05:41;10.77;;;8.80;;
44214;SDS011;29884;47.450;19.124;2023-01-10T01:08:08;11.13;;;7.93;;
44214;SDS011;29884;47.450;19.124;2023-01-10T01:10:35;9.85;;;8.10;;
44214;SDS011;29884;47.450;19.124;2023-01-10T01:13:08;12.05;;;8.63;;
44214;SDS011;29884;47.450;19.124;2023-01-10T01:15:37;11.30;;;8.57;;
44214;SDS011;29884;47.450;19.124;2023-01-10T01:18:02;12.20;;;7.93;;
44214;SDS011;29884;47.450;19.124;2023-01-10T01:20:28;12.07;;;8.52;;
44214;SDS011;29884;47.450;19.124;2023-01-10T01:22:54;10.30;;;7.55;;
44214;SDS011;29884;47.450;19.124;2023-01-10T01:25:20;11.02;;;7.05;;
44214;SDS011;29884;47.450;19.124;2023-01-10T01:27:46;9.48;;;7.47;;
44214;SDS011;29884;47.450;19.124;2023-01-10T01:30:12;8.38;;;6.55;;
44214;SDS011;29884;47.450;19.124;2023-01-10T01:32:39;9.82;;;6.90;;
44214;SDS011;29884;47.450;19.124;2023-01-10T01:35:05;7.60;;;6.63;;
44214;SDS011;29884;47.450;19.124;2023-01-10T01:37:32;7.65;;;6.43;;
44214;SDS011;29884;47.450;19.124;2023-01-10T01:39:58;8.63;;;6.65;;
44214;SDS011;29884;47.450;19.124;2023-01-10T01:47:32;8.20;;;6.55;;
44214;SDS011;29884;47.450;19.124;2023-01-10T01:52:54;8.43;;;6.63;;
44214;SDS011;29884;47.450;19.124;2023-01-10T01:55:22;8.30;;;6.93;;
44214;SDS011;29884;47.450;19.124;2023-01-10T01:57:51;9.45;;;6.75;;
44214;SDS011;29884;47.450;19.124;2023-01-10T02:00:19;9.35;;;6.45;;
44214;SDS011;29884;47.450;19.124;2023-01-10T02:02:49;8.60;;;7.38;;
44214;SDS011;29884;47.450;19.124;2023-01-10T02:05:17;8.68;;;6.50;;
44214;SDS011;29884;47.450;19.124;2023-01-10T02:07:48;9.30;;;7.30;;
44214;SDS011;29884;47.450;19.124;2023-01-10T02:12:48;8.88;;;7.55;;
44214;SDS011;29884;47.450;19.124;2023-01-10T02:15:16;9.90;;;7.53;;
44214;SDS011;29884;47.450;19.124;2023-01-10T02:17:42;8.40;;;7.30;;
44214;SDS011;29884;47.450;19.124;2023-01-10T02:20:11;8.88;;;6.97;;
44214;SDS011;29884;47.450;19.124;2023-01-10T02:38:50;8.38;;;6.68;;
44214;SDS011;29884;47.450;19.124;2023-01-10T02:46:45;7.40;;;5.97;;
44214;SDS011;29884;47.450;19.124;2023-01-10T02:49:13;7.50;;;6.07;;
44214;SDS011;29884;47.450;19.124;2023-01-10T02:51:38;8.32;;;6.50;;
44214;SDS011;29884;47.450;19.124;2023-01-10T02:54:05;7.70;;;6.38;;
44214;SDS011;29884;47.450;19.124;2023-01-10T02:56:43;8.45;;;6.32;;
44214;SDS011;29884;47.450;19.124;2023-01-10T03:02:16;7.45;;;5.93;;
44214;SDS011;29884;47.450;19.124;2023-01-10T03:13:26;6.70;;;5.43;;
44214;SDS011;29884;47.450;19.124;2023-01-10T03:16:06;6.28;;;5.53;;
44214;SDS011;29884;47.450;19.124;2023-01-10T03:18:38;7.00;;;6.30;;
44214;SDS011;29884;47.450;19.124;2023-01-10T03:21:13;8.13;;;5.95;;
44214;SDS011;29884;47.450;19.124;2023-01-10T03:23:41;7.05;;;6.03;;
44214;SDS011;29884;47.450;19.124;2023-01-10T03:26:08;7.60;;;5.72;;
44214;SDS011;29884;47.450;19.124;2023-01-10T03:28:46;7.47;;;5.95;;
44214;SDS011;29884;47.450;19.124;2023-01-10T03:31:17;6.40;;;5.72;;
44214;SDS011;29884;47.450;19.124;2023-01-10T03:33:47;6.70;;;5.55;;
44214;SDS011;29884;47.450;19.124;2023-01-10T03:39:19;7.32;;;4.82;;
44214;SDS011;29884;47.450;19.124;2023-01-10T03:50:22;5.70;;;5.00;;
44214;SDS011;29884;47.450;19.124;2023-01-10T03:52:49;6.07;;;5.05;;
44214;SDS011;29884;47.450;19.124;2023-01-10T03:55:23;7.07;;;5.38;;
44214;SDS011;29884;47.450;19.124;2023-01-10T03:57:51;6.07;;;5.18;;
44214;SDS011;29884;47.450;19.124;2023-01-10T04:00:17;6.05;;;5.22;;
44214;SDS011;29884;47.450;19.124;2023-01-10T04:02:44;7.15;;;5.00;;
44214;SDS011;29884;47.450;19.124;2023-01-10T04:05:10;6.15;;;5.28;;
44214;SDS011;29884;47.450;19.124;2023-01-10T04:07:36;5.65;;;4.82;;
44214;SDS011;29884;47.450;19.124;2023-01-10T04:10:05;6.30;;;4.80;;
44214;SDS011;29884;47.450;19.124;2023-01-10T04:12:31;5.95;;;5.07;;
44214;SDS011;29884;47.450;19.124;2023-01-10T04:14:57;5.97;;;4.95;;
44214;SDS011;29884;47.450;19.124;2023-01-10T04:17:23;6.53;;;5.20;;
44214;SDS011;29884;47.450;19.124;2023-01-10T04:19:49;6.70;;;4.95;;
44214;SDS011;29884;47.450;19.124;2023-01-10T04:22:14;6.32;;;4.90;;
44214;SDS011;29884;47.450;19.124;2023-01-10T04:24:40;6.53;;;4.93;;
44214;SDS011;29884;47.450;19.124;2023-01-10T04:27:08;6.50;;;4.70;;
44214;SDS011;29884;47.450;19.124;2023-01-10T04:29:33;6.15;;;4.90;;
44214;SDS011;29884;47.450;19.124;2023-01-10T04:31:59;5.63;;;4.35;;
44214;SDS011;29884;47.450;19.124;2023-01-10T04:34:25;5.43;;;4.75;;
44214;SDS011;29884;47.450;19.124;2023-01-10T04:36:51;7.60;;;4.85;;
44214;SDS011;29884;47.450;19.124;2023-01-10T04:39:16;6.95;;;5.30;;
44214;SDS011;29884;47.450;19.124;2023-01-10T04:41:42;6.35;;;5.00;;
44214;SDS011;29884;47.450;19.124;2023-01-10T04:44:08;8.63;;;5.53;;
44214;SDS011;29884;47.450;19.124;2023-01-10T04:46:34;7.38;;;5.03;;
44214;SDS011;29884;47.450;19.124;2023-01-10T04:49:00;6.88;;;5.00;;
44214;SDS011;29884;47.450;19.124;2023-01-10T04:51:26;6.28;;;5.07;;
44214;SDS011;29884;47.450;19.124;2023-01-10T04:53:52;7.80;;;5.47;;
44214;SDS011;29884;47.450;19.124;2023-01-10T04:56:19;6.80;;;5.07;;
44214;SDS011;29884;47.450;19.124;2023-01-10T04:58:46;6.38;;;5.32;;
44214;SDS011;29884;47.450;19.124;2023-01-10T05:01:14;8.00;;;5.88;;
44214;SDS011;29884;47.450;19.124;2023-01-10T05:03:46;7.72;;;5.00;;
44214;SDS011;29884;47.450;19.124;2023-01-10T05:06:13;6.47;;;4.93;;
44214;SDS011;29884;47.450;19.124;2023-01-10T05:08:39;6.05;;;4.75;;
44214;SDS011;29884;47.450;19.124;2023-01-10T05:11:04;6.75;;;5.40;;
44214;SDS011;29884;47.450;19.124;2023-01-10T05:13:30;4.63;;;3.67;;
44214;SDS011;29884;47.450;19.124;2023-01-10T05:15:56;4.25;;;3.67;;
44214;SDS011;29884;47.450;19.124;2023-01-10T05:18:23;3.20;;;2.67;;
44214;SDS011;29884;47.450;19.124;2023-01-10T05:20:49;2.40;;;2.10;;
44214;SDS011;29884;47.450;19.124;2023-01-10T05:23:15;2.40;;;1.80;;
44214;SDS011;29884;47.450;19.124;2023-01-10T05:25:41;2.95;;;1.95;;
44214;SDS011;29884;47.450;19.124;2023-01-10T05:28:07;3.25;;;2.13;;
44214;SDS011;29884;47.450;19.124;2023-01-10T05:30:33;2.00;;;1.80;;
44214;SDS011;29884;47.450;19.124;2023-01-10T05:32:59;2.60;;;1.50;;
44214;SDS011;29884;47.450;19.124;2023-01-10T05:35:27;1.92;;;1.38;;
44214;SDS011;29884;47.450;19.124;2023-01-10T05:37:53;2.65;;;1.27;;
44214;SDS011;29884;47.450;19.124;2023-01-10T05:40:18;2.28;;;1.20;;
44214;SDS011;29884;47.450;19.124;2023-01-10T05:42:44;2.90;;;1.02;;
44214;SDS011;29884;47.450;19.124;2023-01-10T05:45:10;1.23;;;1.00;;
44214;SDS011;29884;47.450;19.124;2023-01-10T05:47:36;2.30;;;0.93;;
44214;SDS011;29884;47.450;19.124;2023-01-10T05:50:02;2.60;;;1.10;;
44214;SDS011;29884;47.450;19.124;2023-01-10T05:52:28;1.50;;;0.93;;
44214;SDS011;29884;47.450;19.124;2023-01-10T05:54:54;1.48;;;0.80;;
44214;SDS011;29884;47.450;19.124;2023-01-10T05:57:19;1.40;;;1.05;;
44214;SDS011;29884;47.450;19.124;2023-01-10T05:59:48;1.33;;;0.90;;
44214;SDS011;29884;47.450;19.124;2023-01-10T06:02:14;1.48;;;0.80;;
44214;SDS011;29884;47.450;19.124;2023-01-10T06:04:40;1.20;;;0.85;;
44214;SDS011;29884;47.450;19.124;2023-01-10T06:07:06;2.20;;;0.90;;
44214;SDS011;29884;47.450;19.124;2023-01-10T06:09:31;1.77;;;0.93;;
44214;SDS011;29884;47.450;19.124;2023-01-10T06:11:57;1.60;;;0.90;;
44214;SDS011;29884;47.450;19.124;2023-01-10T06:14:23;2.47;;;0.90;;
44214;SDS011;29884;47.450;19.124;2023-01-10T06:16:48;1.83;;;0.90;;
44214;SDS011;29884;47.450;19.124;2023-01-10T06:19:14;1.67;;;1.00;;
44214;SDS011;29884;47.450;19.124;2023-01-10T06:21:40;1.80;;;0.98;;
44214;SDS011;29884;47.450;19.124;2023-01-10T06:24:06;2.80;;;1.02;;
44214;SDS011;29884;47.450;19.124;2023-01-10T06:26:32;1.83;;;1.08;;
44214;SDS011;29884;47.450;19.124;2023-01-10T06:28:57;1.77;;;1.00;;
44214;SDS011;29884;47.450;19.124;2023-01-10T06:31:24;2.28;;;1.00;;
44214;SDS011;29884;47.450;19.124;2023-01-10T06:33:50;1.52;;;1.00;;
44214;SDS011;29884;47.450;19.124;2023-01-10T06:36:16;1.08;;;0.80;;
44214;SDS011;29884;47.450;19.124;2023-01-10T06:38:42;1.98;;;0.70;;
44214;SDS011;29884;47.450;19.124;2023-01-10T06:41:07;1.20;;;0.80;;
44214;SDS011;29884;47.450;19.124;2023-01-10T06:43:39;2.50;;;0.80;;
44214;SDS011;29884;47.450;19.124;2023-01-10T06:46:06;0.70;;;0.50;;
44214;SDS011;29884;47.450;19.124;2023-01-10T06:48:34;0.80;;;0.47;;
44214;SDS011;29884;47.450;19.124;2023-01-10T06:51:01;1.20;;;0.50;;
44214;SDS011;29884;47.450;19.124;2023-01-10T06:53:27;0.30;;;0.30;;
44214;SDS011;29884;47.450;19.124;2023-01-10T06:55:53;0.95;;;0.40;;
44214;SDS011;29884;47.450;19.124;2023-01-10T06:58:19;0.80;;;0.50;;
44214;SDS011;29884;47.450;19.124;2023-01-10T07:00:46;1.55;;;0.30;;
44214;SDS011;29884;47.450;19.124;2023-01-10T07:03:11;0.85;;;0.30;;
44214;SDS011;29884;47.450;19.124;2023-01-10T07:05:37;0.55;;;0.35;;
44214;SDS011;29884;47.450;19.124;2023-01-10T07:08:03;0.93;;;0.40;;
44214;SDS011;29884;47.450;19.124;2023-01-10T07:10:28;0.95;;;0.40;;
44214;SDS011;29884;47.450;19.124;2023-01-10T07:12:54;1.38;;;0.30;;
44214;SDS011;29884;47.450;19.124;2023-01-10T07:15:20;0.50;;;0.40;;
44214;SDS011;29884;47.450;19.124;2023-01-10T07:17:46;0.68;;;0.40;;
44214;SDS011;29884;47.450;19.124;2023-01-10T07:20:12;1.48;;;0.40;;
44214;SDS011;29884;47.450;19.124;2023-01-10T07:22:37;0.60;;;0.40;;
44214;SDS011;29884;47.450;19.124;2023-01-10T07:25:03;1.08;;;0.60;;
44214;SDS011;29884;47.450;19.124;2023-01-10T07:27:30;0.80;;;0.40;;
44214;SDS011;29884;47.450;19.124;2023-01-10T07:29:56;1.33;;;0.60;;
44214;SDS011;29884;47.450;19.124;2023-01-10T07:32:23;1.20;;;0.60;;
44214;SDS011;29884;47.450;19.124;2023-01-10T07:34:49;1.20;;;0.50;;
44214;SDS011;29884;47.450;19.124;2023-01-10T07:37:14;1.17;;;0.50;;
44214;SDS011;29884;47.450;19.124;2023-01-10T07:39:40;1.00;;;0.50;;
44214;SDS011;29884;47.450;19.124;2023-01-10T07:42:08;0.95;;;0.40;;
44214;SDS011;29884;47.450;19.124;2023-01-10T07:44:33;0.47;;;0.35;;
44214;SDS011;29884;47.450;19.124;2023-01-10T07:46:59;0.50;;;0.40;;
44214;SDS011;29884;47.450;19.124;2023-01-10T07:49:25;0.90;;;0.43;;
44214;SDS011;29884;47.450;19.124;2023-01-10T07:51:51;0.93;;;0.40;;
44214;SDS011;29884;47.450;19.124;2023-01-10T07:54:16;1.10;;;0.40;;
44214;SDS011;29884;47.450;19.124;2023-01-10T07:56:42;1.35;;;0.38;;
44214;SDS011;29884;47.450;19.124;2023-01-10T07:59:07;0.60;;;0.40;;
44214;SDS011;29884;47.450;19.124;2023-01-10T08:01:33;0.68;;;0.40;;
44214;SDS011;29884;47.450;19.124;2023-01-10T08:03:59;0.93;;;0.40;;
44214;SDS011;29884;47.450;19.124;2023-01-10T08:06:24;1.08;;;0.57;;
44214;SDS011;29884;47.450;19.124;2023-01-10T08:08:50;1.23;;;0.30;;
44214;SDS011;29884;47.450;19.124;2023-01-10T08:11:16;0.60;;;0.30;;
44214;SDS011;29884;47.450;19.124;2023-01-10T08:13:42;1.63;;;0.35;;
44214;SDS011;29884;47.450;19.124;2023-01-10T08:16:10;1.17;;;0.50;;
44214;SDS011;29884;47.450;19.124;2023-01-10T08:18:36;1.98;;;0.43;;
44214;SDS011;29884;47.450;19.124;2023-01-10T08:21:06;0.70;;;0.40;;
44214;SDS011;29884;47.450;19.124;2023-01-10T08:23:31;0.80;;;0.30;;
44214;SDS011;29884;47.450;19.124;2023-01-10T08:25:57;0.60;;;0.30;;
44214;SDS011;29884;47.450;19.124;2023-01-10T08:28:23;0.73;;;0.35;;
44214;SDS011;29884;47.450;19.124;2023-01-10T08:30:49;0.68;;;0.40;;
44214;SDS011;29884;47.450;19.124;2023-01-10T08:33:19;1.10;;;0.50;;
44214;SDS011;29884;47.450;19.124;2023-01-10T08:35:50;2.00;;;0.40;;
44214;SDS011;29884;47.450;19.124;2023-01-10T08:38:16;0.80;;;0.40;;
44214;SDS011;29884;47.450;19.124;2023-01-10T08:40:42;0.40;;;0.30;;
44214;SDS011;29884;47.450;19.124;2023-01-10T08:43:11;1.80;;;0.40;;
44214;SDS011;29884;47.450;19.124;2023-01-10T08:45:37;1.58;;;0.40;;
44214;SDS011;29884;47.450;19.124;2023-01-10T08:48:04;0.45;;;0.30;;
44214;SDS011;29884;47.450;19.124;2023-01-10T08:50:30;1.40;;;0.30;;
44214;SDS011;29884;47.450;19.124;2023-01-10T08:52:57;1.15;;;0.30;;
44214;SDS011;29884;47.450;19.124;2023-01-10T08:55:23;0.47;;;0.20;;
44214;SDS011;29884;47.450;19.124;2023-01-10T08:57:49;0.60;;;0.20;;
44214;SDS011;29884;47.450;19.124;2023-01-10T09:00:15;0.90;;;0.20;;
44214;SDS011;29884;47.450;19.124;2023-01-10T09:02:41;0.50;;;0.20;;
44214;SDS011;29884;47.450;19.124;2023-01-10T09:05:08;0.60;;;0.20;;
44214;SDS011;29884;47.450;19.124;2023-01-10T09:07:33;0.50;;;0.20;;
44214;SDS011;29884;47.450;19.124;2023-01-10T09:09:59;2.78;;;0.47;;
44214;SDS011;29884;47.450;19.124;2023-01-10T09:12:25;0.93;;;0.20;;
44214;SDS011;29884;47.450;19.124;2023-01-10T09:15:09;0.68;;;0.30;;
44214;SDS011;29884;47.450;19.124;2023-01-10T09:17:36;2.40;;;0.30;;
44214;SDS011;29884;47.450;19.124;2023-01-10T09:20:02;0.60;;;0.30;;
44214;SDS011;29884;47.450;19.124;2023-01-10T09:22:30;0.65;;;0.25;;
44214;SDS011;29884;47.450;19.124;2023-01-10T09:24:56;2.03;;;1.13;;
44214;SDS011;29884;47.450;19.124;2023-01-10T09:27:23;0.98;;;0.57;;
44214;SDS011;29884;47.450;19.124;2023-01-10T09:29:48;2.67;;;0.50;;
44214;SDS011;29884;47.450;19.124;2023-01-10T09:32:14;1.05;;;0.50;;
44214;SDS011;29884;47.450;19.124;2023-01-10T09:34:40;0.80;;;0.38;;
44214;SDS011;29884;47.450;19.124;2023-01-10T09:37:06;0.70;;;0.35;;
44214;SDS011;29884;47.450;19.124;2023-01-10T09:39:32;0.63;;;0.32;;
44214;SDS011;29884;47.450;19.124;2023-01-10T09:44:36;1.67;;;0.60;;
44214;SDS011;29884;47.450;19.124;2023-01-10T09:47:07;0.68;;;0.30;;
44214;SDS011;29884;47.450;19.124;2023-01-10T09:49:42;0.50;;;0.25;;
44214;SDS011;29884;47.450;19.124;2023-01-10T09:54:41;0.85;;;0.30;;
44214;SDS011;29884;47.450;19.124;2023-01-10T09:57:15;0.77;;;0.28;;
44214;SDS011;29884;47.450;19.124;2023-01-10T09:59:43;2.45;;;0.30;;
44214;SDS011;29884;47.450;19.124;2023-01-10T10:04:45;0.63;;;0.30;;
44214;SDS011;29884;47.450;19.124;2023-01-10T10:07:31;0.38;;;0.10;;
44214;SDS011;29884;47.450;19.124;2023-01-10T10:09:57;0.40;;;0.20;;
44214;SDS011;29884;47.450;19.124;2023-01-10T10:12:36;0.30;;;0.20;;
44214;SDS011;29884;47.450;19.124;2023-01-10T10:15:26;1.02;;;0.47;;
44214;SDS011;29884;47.450;19.124;2023-01-10T10:18:12;1.15;;;0.30;;
44214;SDS011;29884;47.450;19.124;2023-01-10T10:24:03;5.50;;;1.67;;
44214;SDS011;29884;47.450;19.124;2023-01-10T10:26:55;3.03;;;0.77;;
44214;SDS011;29884;47.450;19.124;2023-01-10T10:32:56;3.58;;;0.60;;
44214;SDS011;29884;47.450;19.124;2023-01-10T10:34:57;1.98;;;0.65;;
44214;SDS011;29884;47.450;19.124;2023-01-10T10:37:47;8.45;;;1.75;;
44214;SDS011;29884;47.450;19.124;2023-01-10T10:40:19;1.98;;;0.70;;
44214;SDS011;29884;47.450;19.124;2023-01-10T10:42:51;3.83;;;1.00;;
44214;SDS011;29884;47.450;19.124;2023-01-10T10:45:22;6.60;;;1.38;;
44214;SDS011;29884;47.450;19.124;2023-01-10T10:48:28;1.88;;;0.70;;
44214;SDS011;29884;47.450;19.124;2023-01-10T10:51:13;2.53;;;0.68;;
44214;SDS011;29884;47.450;19.124;2023-01-10T10:53:45;1.35;;;0.60;;
44214;SDS011;29884;47.450;19.124;2023-01-10T10:56:13;2.13;;;0.55;;
44214;SDS011;29884;47.450;19.124;2023-01-10T10:58:43;4.53;;;0.77;;
44214;SDS011;29884;47.450;19.124;2023-01-10T11:01:12;2.88;;;0.95;;
44214;SDS011;29884;47.450;19.124;2023-01-10T11:06:13;2.60;;;0.77;;
44214;SDS011;29884;47.450;19.124;2023-01-10T11:08:40;2.15;;;0.60;;
44214;SDS011;29884;47.450;19.124;2023-01-10T11:11:26;2.78;;;0.90;;
44214;SDS011;29884;47.450;19.124;2023-01-10T11:13:57;2.35;;;0.90;;
44214;SDS011;29884;47.450;19.124;2023-01-10T11:16:32;1.33;;;0.60;;
44214;SDS011;29884;47.450;19.124;2023-01-10T11:19:22;1.40;;;0.70;;
44214;SDS011;29884;47.450;19.124;2023-01-10T11:21:51;1.20;;;0.50;;
44214;SDS011;29884;47.450;19.124;2023-01-10T11:24:22;1.00;;;0.50;;
44214;SDS011;29884;47.450;19.124;2023-01-10T11:26:51;0.88;;;0.32;;
44214;SDS011;29884;47.450;19.124;2023-01-10T11:29:17;1.17;;;0.50;;
44214;SDS011;29884;47.450;19.124;2023-01-10T11:31:48;1.38;;;0.60;;
44214;SDS011;29884;47.450;19.124;2023-01-10T11:34:30;1.20;;;0.52;;
44214;SDS011;29884;47.450;19.124;2023-01-10T11:37:03;1.02;;;0.50;;
44214;SDS011;29884;47.450;19.124;2023-01-10T11:39:41;1.25;;;0.50;;
44214;SDS011;29884;47.450;19.124;2023-01-10T11:44:48;0.90;;;0.30;;
44214;SDS011;29884;47.450;19.124;2023-01-10T11:47:14;0.60;;;0.30;;
44214;SDS011;29884;47.450;19.124;2023-01-10T11:49:45;0.50;;;0.20;;
44214;SDS011;29884;47.450;19.124;2023-01-10T11:52:14;0.82;;;0.47;;
44214;SDS011;29884;47.450;19.124;2023-01-10T11:54:47;0.73;;;0.40;;
44214;SDS011;29884;47.450;19.124;2023-01-10T11:57:17;0.90;;;0.40;;
44214;SDS011;29884;47.450;19.124;2023-01-10T11:59:50;0.80;;;0.50;;
44214;SDS011;29884;47.450;19.124;2023-01-10T12:02:20;0.43;;;0.22;;
44214;SDS011;29884;47.450;19.124;2023-01-10T12:04:53;0.85;;;0.30;;
44214;SDS011;29884;47.450;19.124;2023-01-10T12:07:20;1.67;;;0.32;;
44214;SDS011;29884;47.450;19.124;2023-01-10T12:19:50;2.55;;;0.70;;
44214;SDS011;29884;47.450;19.124;2023-01-10T12:22:18;1.00;;;0.40;;
44214;SDS011;29884;47.450;19.124;2023-01-10T12:24:50;1.27;;;0.50;;
44214;SDS011;29884;47.450;19.124;2023-01-10T12:27:17;1.60;;;0.57;;
44214;SDS011;29884;47.450;19.124;2023-01-10T12:29:46;0.88;;;0.40;;
44214;SDS011;29884;47.450;19.124;2023-01-10T12:32:26;0.75;;;0.40;;
44214;SDS011;29884;47.450;19.124;2023-01-10T12:35:04;1.10;;;0.52;;
44214;SDS011;29884;47.450;19.124;2023-01-10T12:43:16;1.70;;;0.60;;
44214;SDS011;29884;47.450;19.124;2023-01-10T12:46:26;0.93;;;0.30;;
44214;SDS011;29884;47.450;19.124;2023-01-10T12:49:07;0.60;;;0.32;;
44214;SDS011;29884;47.450;19.124;2023-01-10T12:51:47;0.85;;;0.30;;
44214;SDS011;29884;47.450;19.124;2023-01-10T12:54:21;0.40;;;0.20;;
44214;SDS011;29884;47.450;19.124;2023-01-10T12:56:49;0.83;;;0.40;;
44214;SDS011;29884;47.450;19.124;2023-01-10T13:01:48;0.70;;;0.30;;
44214;SDS011;29884;47.450;19.124;2023-01-10T13:04:19;0.90;;;0.30;;
44214;SDS011;29884;47.450;19.124;2023-01-10T13:06:47;2.30;;;1.10;;
44214;SDS011;29884;47.450;19.124;2023-01-10T13:09:15;4.95;;;1.55;;
44214;SDS011;29884;47.450;19.124;2023-01-10T13:11:46;1.20;;;0.70;;
44214;SDS011;29884;47.450;19.124;2023-01-10T13:14:28;2.00;;;1.00;;
44214;SDS011;29884;47.450;19.124;2023-01-10T13:17:09;2.60;;;1.30;;
44214;SDS011;29884;47.450;19.124;2023-01-10T13:22:44;1.90;;;0.80;;
44214;SDS011;29884;47.450;19.124;2023-01-10T13:25:18;4.47;;;1.00;;
44214;SDS011;29884;47.450;19.124;2023-01-10T13:27:44;3.58;;;2.00;;
44214;SDS011;29884;47.450;19.124;2023-01-10T13:30:26;4.93;;;1.95;;
44214;SDS011;29884;47.450;19.124;2023-01-10T13:33:17;1.02;;;0.60;;
44214;SDS011;29884;47.450;19.124;2023-01-10T13:35:51;0.50;;;0.30;;
44214;SDS011;29884;47.450;19.124;2023-01-10T13:40:55;1.02;;;0.40;;
44214;SDS011;29884;47.450;19.124;2023-01-10T13:49:37;1.20;;;0.70;;
44214;SDS011;29884;47.450;19.124;2023-01-10T13:51:28;1.60;;;0.60;;
44214;SDS011;29884;47.450;19.124;2023-01-10T13:56:32;0.40;;;0.30;;
44214;SDS011;29884;47.450;19.124;2023-01-10T13:58:59;0.50;;;0.30;;
44214;SDS011;29884;47.450;19.124;2023-01-10T14:01:41;0.90;;;0.40;;
44214;SDS011;29884;47.450;19.124;2023-01-10T14:07:00;0.77;;;0.40;;
44214;SDS011;29884;47.450;19.124;2023-01-10T14:09:30;0.93;;;0.50;;
44214;SDS011;29884;47.450;19.124;2023-01-10T14:12:06;1.50;;;0.60;;
44214;SDS011;29884;47.450;19.124;2023-01-10T14:14:43;1.20;;;0.60;;
44214;SDS011;29884;47.450;19.124;2023-01-10T14:22:26;0.80;;;0.40;;
44214;SDS011;29884;47.450;19.124;2023-01-10T14:24:53;1.92;;;0.55;;
44214;SDS011;29884;47.450;19.124;2023-01-10T14:27:19;0.80;;;0.40;;
44214;SDS011;29884;47.450;19.124;2023-01-10T14:30:13;1.75;;;0.30;;
44214;SDS011;29884;47.450;19.124;2023-01-10T14:32:39;0.75;;;0.30;;
44214;SDS011;29884;47.450;19.124;2023-01-10T14:35:08;0.75;;;0.30;;
44214;SDS011;29884;47.450;19.124;2023-01-10T14:37:43;0.60;;;0.30;;
44214;SDS011;29884;47.450;19.124;2023-01-10T14:42:43;0.98;;;0.40;;
44214;SDS011;29884;47.450;19.124;2023-01-10T14:45:22;2.78;;;1.00;;
44214;SDS011;29884;47.450;19.124;2023-01-10T14:47:55;3.10;;;0.60;;
44214;SDS011;29884;47.450;19.124;2023-01-10T14:50:27;2.17;;;0.70;;
44214;SDS011;29884;47.450;19.124;2023-01-10T14:52:56;1.23;;;0.50;;
44214;SDS011;29884;47.450;19.124;2023-01-10T14:55:23;1.25;;;0.60;;
44214;SDS011;29884;47.450;19.124;2023-01-10T14:57:52;2.38;;;0.47;;
44214;SDS011;29884;47.450;19.124;2023-01-10T15:00:22;0.60;;;0.30;;
44214;SDS011;29884;47.450;19.124;2023-01-10T15:02:59;0.70;;;0.40;;
44214;SDS011;29884;47.450;19.124;2023-01-10T15:05:28;1.23;;;0.70;;
44214;SDS011;29884;47.450;19.124;2023-01-10T15:10:48;0.90;;;0.60;;
44214;SDS011;29884;47.450;19.124;2023-01-10T15:13:16;1.48;;;0.70;;
44214;SDS011;29884;47.450;19.124;2023-01-10T15:15:45;1.60;;;0.70;;
44214;SDS011;29884;47.450;19.124;2023-01-10T15:18:29;1.58;;;0.60;;
44214;SDS011;29884;47.450;19.124;2023-01-10T15:21:00;0.95;;;0.50;;
44214;SDS011;29884;47.450;19.124;2023-01-10T15:23:36;1.10;;;0.52;;
44214;SDS011;29884;47.450;19.124;2023-01-10T15:26:10;0.52;;;0.30;;
44214;SDS011;29884;47.450;19.124;2023-01-10T15:28:39;0.80;;;0.40;;
44214;SDS011;29884;47.450;19.124;2023-01-10T15:31:05;1.38;;;0.50;;
44214;SDS011;29884;47.450;19.124;2023-01-10T15:33:33;1.27;;;0.80;;
44214;SDS011;29884;47.450;19.124;2023-01-10T15:36:11;0.70;;;0.40;;
44214;SDS011;29884;47.450;19.124;2023-01-10T15:38:44;3.78;;;0.50;;
44214;SDS011;29884;47.450;19.124;2023-01-10T15:41:15;0.52;;;0.40;;
44214;SDS011;29884;47.450;19.124;2023-01-10T15:43:47;0.75;;;0.50;;
44214;SDS011;29884;47.450;19.124;2023-01-10T15:46:21;0.77;;;0.40;;
44214;SDS011;29884;47.450;19.124;2023-01-10T15:51:33;1.48;;;0.57;;
44214;SDS011;29884;47.450;19.124;2023-01-10T15:54:05;1.10;;;0.50;;
44214;SDS011;29884;47.450;19.124;2023-01-10T15:56:49;3.38;;;0.60;;
44214;SDS011;29884;47.450;19.124;2023-01-10T15:59:37;1.55;;;0.60;;
44214;SDS011;29884;47.450;19.124;2023-01-10T16:04:42;1.15;;;0.50;;
44214;SDS011;29884;47.450;19.124;2023-01-10T16:09:57;3.78;;;1.33;;
44214;SDS011;29884;47.450;19.124;2023-01-10T16:15:19;2.70;;;0.80;;
44214;SDS011;29884;47.450;19.124;2023-01-10T16:17:47;1.35;;;0.70;;
44214;SDS011;29884;47.450;19.124;2023-01-10T16:20:14;0.82;;;0.55;;
44214;SDS011;29884;47.450;19.124;2023-01-10T16:22:42;2.75;;;0.55;;
44214;SDS011;29884;47.450;19.124;2023-01-10T16:25:16;1.80;;;0.70;;
44214;SDS011;29884;47.450;19.124;2023-01-10T16:27:44;5.15;;;2.00;;
44214;SDS011;29884;47.450;19.124;2023-01-10T16:30:13;2.42;;;0.95;;
44214;SDS011;29884;47.450;19.124;2023-01-10T16:32:47;2.42;;;1.13;;
44214;SDS011;29884;47.450;19.124;2023-01-10T16:35:13;1.40;;;0.57;;
44214;SDS011;29884;47.450;19.124;2023-01-10T16:37:40;5.78;;;1.67;;
44214;SDS011;29884;47.450;19.124;2023-01-10T16:40:17;4.88;;;1.10;;
44214;SDS011;29884;47.450;19.124;2023-01-10T16:42:49;1.00;;;0.60;;
44214;SDS011;29884;47.450;19.124;2023-01-10T16:45:33;1.80;;;0.68;;
44214;SDS011;29884;47.450;19.124;2023-01-10T16:47:59;2.08;;;0.82;;
44214;SDS011;29884;47.450;19.124;2023-01-10T16:50:25;1.58;;;0.60;;
44214;SDS011;29884;47.450;19.124;2023-01-10T16:52:51;1.77;;;0.70;;
44214;SDS011;29884;47.450;19.124;2023-01-10T16:55:17;1.73;;;0.75;;
44214;SDS011;29884;47.450;19.124;2023-01-10T16:57:45;0.90;;;0.50;;